Fontanelle, Iowa
Current Conditions -  °F | °C
As of 3:35 PM on Friday 24 Oct 2014 (Local Time) from KCSQ Reporting Station
Broken Clouds Broken Clouds  
Wind Chill: 70°   Ceiling: 1900
Heat Index: 70°   Visibility: 10mi
Dew Point: 63°   Wind: 13mph
Humidity: 78%   Direction: 220°SW
Pressure: 29.91"   Gusts: NA
Location:  41.29°N, 94.56°W
Report Text: KCSQ 242035Z AUTO 22011KT 10SM BKN019 21/17 A2991 RMK AO2
Loading
Personal Weather Stations






























Interactive Weather Map
Tropical Storm Tracking
New forecast layout! Learn more

10-Day Weather Forecast

Advertisements
Track Severe Weather on mobile